Latest Weather Observations for Jandakot

IDW60901

Issued at 3:45 pm WST Friday 22 August 2014 (issued every 10 minutes, with the page automatically refreshed every 10 minutes)

About weather observations | Map of Perth area stations | Latest observations for Perth area | Other Formats
Station Details ID: 009172 Name: JANDAKOT AERO Lat: -32.10 Lon: 115.88 Height: 30.0 m
Data from the previous 72 hours. | See also: Recent months at Jandakot
Date/Time
WST
Tmp

°C
App
Tmp
°C
Dew
Point
°C
Rel
Hum
%
Delta-T

°C
Wind Press
QNH
hPa
Press
MSL
hPa
Rain
since
9 am
mm
Dir
 
Spd
km/h
Gust
km/h
Spd
kts
Gust
kts
22/03:30pm 18.5 14.5 6.6 45 5.9 WSW 17 20 9 11 1022.2 - 0.0
22/03:00pm 19.0 14.9 4.6 38 6.9 WSW 15 22 8 12 1021.9 1021.9 0.0
22/02:30pm 19.0 16.0 4.0 37 7.1 SW 9 15 5 8 1021.9 - 0.0
22/02:00pm 19.0 16.4 4.3 38 7.0 N 7 13 4 7 1021.9 - 0.0
22/01:30pm 17.8 16.3 5.1 43 6.1 ENE 2 7 1 4 1021.8 - 0.0
22/01:00pm 17.5 14.7 5.2 44 5.9 SSE 9 13 5 7 1022.0 - 0.0
22/12:30pm 19.0 17.0 4.6 38 6.9 NW 4 9 2 5 1022.1 - 0.0
22/12:00pm 17.4 14.8 6.1 47 5.5 S 9 15 5 8 1022.6 1022.6 0.0
22/11:30am 17.4 15.1 5.9 46 5.6 SSE 7 15 4 8 1022.6 - 0.0
22/11:00am 16.9 14.1 8.7 58 4.2 SSE 13 17 7 9 1022.7 - 0.0
22/10:30am 16.6 15.1 8.6 59 4.1 S 6 17 3 9 1022.8 - 0.0
22/10:00am 16.6 14.8 8.1 57 4.3 SSW 7 13 4 7 1022.6 - 0.0
22/09:30am 16.1 14.6 9.3 64 3.5 E 7 11 4 6 1022.4 - 0.0
22/09:00am 14.6 14.4 10.4 76 2.2 ENE 2 7 1 4 1022.3 1022.3 5.2
22/08:30am 13.6 12.7 10.5 81 1.6 ENE 6 9 3 5 1022.0 - 5.2
22/08:00am 13.4 12.1 10.1 80 1.7 E 7 9 4 5 1021.2 - 5.2
22/07:30am 11.2 9.6 8.8 85 1.2 SSE 7 11 4 6 1020.6 - 5.2
22/07:00am 13.1 11.0 6.6 64 3.1 SW 7 15 4 8 1020.2 - 5.2
22/06:30am 13.7 10.6 7.1 64 3.2 SW 13 24 7 13 1019.6 - 5.2
22/06:00am 14.0 11.0 7.7 66 3.1 SW 13 22 7 12 1019.3 1019.3 5.2
22/05:30am 13.7 10.3 7.8 67 2.9 WSW 15 22 8 12 1018.9 - 5.2
22/05:00am 12.8 10.6 9.2 79 1.8 SW 11 17 6 9 1018.5 - 5.2
22/04:30am 12.8 11.3 10.7 87 1.1 SW 9 13 5 7 1018.2 - 5.2
22/04:18am 13.1 10.9 10.8 86 1.2 SW 13 19 7 10 1018.1 - 5.2
22/04:00am 13.3 9.8 11.0 86 1.2 WSW 20 30 11 16 1018.1 - 5.2
22/03:57am 13.4 9.1 10.7 84 1.4 WSW 24 37 13 20 1018.2 - 5.2
22/03:30am 14.9 10.8 8.6 66 3.2 WSW 20 30 11 16 1017.8 - 4.0
22/03:00am 15.2 10.4 8.9 66 3.2 W 24 35 13 19 1017.6 1017.5 4.0
22/02:30am 14.4 7.4 10.0 75 2.3 W 37 46 20 25 1017.6 - 4.0
22/02:28am 14.4 7.3 9.7 73 2.4 WNW 37 44 20 24 1017.6 - 4.0
22/02:00am 15.2 10.4 10.4 73 2.5 WSW 26 35 14 19 1017.4 - 4.0
22/01:30am 15.3 10.9 7.2 58 4.0 W 20 32 11 17 1017.0 - 4.0
22/01:00am 14.8 10.6 7.5 61 3.6 W 19 22 10 12 1017.0 - 4.0
22/12:30am 15.0 9.9 7.5 61 3.7 W 24 35 13 19 1016.7 - 4.0
22/12:00am 15.4 10.7 9.2 66 3.2 W 24 37 13 20 1016.3 1016.2 4.0
 
Date/Time
WST
Tmp

°C
App
Tmp
°C
Dew
Point
°C
Rel
Hum
%
Delta-T

°C
Wind Press
QNH
hPa
Press
MSL
hPa
Rain
since
9 am
mm
Dir
 
Spd
km/h
Gust
km/h
Spd
kts
Gust
kts
21/11:30pm 14.8 13.1 12.4 85 1.3 W 13 17 7 9 1016.3 - 4.0
21/11:00pm 14.8 13.4 13.5 92 0.7 WNW 13 19 7 10 1016.3 - 4.0
21/10:38pm 14.5 11.9 13.2 92 0.7 WNW 19 22 10 12 1016.0 - 4.0
21/10:30pm 14.6 12.0 13.2 91 0.8 W 19 26 10 14 1016.0 - 4.0
21/10:24pm 14.6 11.4 13.2 91 0.8 W 22 35 12 19 1015.9 - 4.0
21/10:00pm 15.3 12.7 12.0 81 1.8 NW 17 22 9 12 1015.7 - 2.6
21/09:30pm 14.6 14.5 13.2 91 0.8 WNW 6 7 3 4 1015.6 - 2.6
21/09:02pm 14.9 13.5 13.3 90 0.9 WNW 13 15 7 8 1015.5 - 2.6
21/09:00pm 14.9 13.5 13.3 90 0.9 WNW 13 19 7 10 1015.6 1015.5 2.6
21/08:44pm 15.0 12.2 13.2 89 1.0 W 20 28 11 15 1015.6 - 2.4
21/08:30pm 14.7 13.4 13.6 93 0.6 W 13 28 7 15 1015.6 - 2.2
21/08:00pm 14.7 15.6 14.0 96 0.4 N 2 6 1 3 1015.0 - 2.0
21/07:30pm 15.0 14.6 14.1 94 0.5 N 9 11 5 6 1014.6 - 2.0
21/07:00pm 15.5 14.7 14.1 91 0.8 N 11 13 6 7 1014.5 - 2.0
21/06:30pm 15.4 15.0 14.2 92 0.7 N 9 11 5 6 1014.2 - 2.0
21/06:00pm 15.3 14.8 13.7 90 0.9 N 9 11 5 6 1013.9 1013.8 2.0
21/05:30pm 15.4 14.7 13.2 87 1.2 NNW 9 11 5 6 1013.6 - 2.0
21/05:08pm 15.0 14.4 13.6 91 0.8 NNW 9 13 5 7 1013.4 - 2.0
21/05:00pm 14.8 14.5 13.4 91 0.8 NW 7 13 4 7 1013.1 - 2.0
21/04:30pm 14.9 11.9 13.8 93 0.6 W 22 33 12 18 1013.3 - 1.6
21/04:23pm 15.3 14.2 14.2 93 0.6 WNW 13 20 7 11 1013.2 - 1.4
21/04:00pm 15.6 14.0 14.0 90 0.9 NNW 15 19 8 10 1012.9 - 0.6
21/03:50pm 15.8 15.1 14.4 91 0.8 NW 11 15 6 8 1012.8 - 0.6
21/03:30pm 15.6 12.8 14.2 91 0.8 W 22 33 12 18 1012.8 - 0.4
21/03:11pm 16.0 12.5 14.4 90 0.9 W 26 33 14 18 1012.6 - 0.4
21/03:09pm 15.8 12.5 14.0 89 1.0 W 24 33 13 18 1012.6 - 0.4
21/03:00pm 16.3 14.2 14.6 90 1.0 W 19 26 10 14 1012.5 1012.4 0.2
21/02:56pm 16.2 13.8 14.3 88 1.1 WSW 20 28 11 15 1012.4 - 0.2
21/02:51pm 16.0 12.8 14.2 89 1.0 W 24 35 13 19 1012.4 - 0.2
21/02:32pm 16.8 12.3 14.9 88 1.1 W 32 44 17 24 1012.2 - 0.0
21/02:30pm 16.7 12.4 14.4 86 1.3 W 30 41 16 22 1012.1 - 0.0
21/02:27pm 17.0 12.4 14.6 86 1.4 W 32 46 17 25 1012.1 - 0.0
21/02:12pm 18.1 13.4 13.1 72 2.8 NW 30 48 16 26 1011.7 - 0.0
21/02:00pm 19.0 13.9 11.8 63 4.0 NW 30 41 16 22 1011.7 - 0.0
21/01:30pm 19.3 13.7 11.5 60 4.3 NW 32 44 17 24 1011.6 - 0.0
21/01:00pm 19.6 14.0 11.4 59 4.5 NW 32 43 17 23 1011.7 - 0.0
21/12:30pm 20.3 15.0 11.2 56 5.0 NW 30 39 16 21 1011.9 - 0.0
21/12:00pm 20.3 15.1 10.3 52 5.4 NW 28 37 15 20 1012.0 1011.9 0.0
21/11:30am 20.2 14.9 8.6 47 6.1 WNW 26 35 14 19 1012.1 - 0.0
21/11:00am 19.2 14.2 10.9 58 4.5 W 28 39 15 21 1012.5 - 0.0
21/10:30am 19.2 13.1 10.3 56 4.8 W 33 44 18 24 1012.4 - 0.0
21/10:00am 18.9 13.0 10.6 58 4.5 W 32 41 17 22 1012.3 - 0.0
21/09:30am 19.4 15.6 12.4 64 3.9 WNW 24 35 13 19 1012.1 - 0.0
21/09:00am 18.3 16.2 13.6 74 2.7 WNW 17 28 9 15 1011.8 1011.7 7.6
21/08:30am 17.8 14.3 13.4 75 2.5 W 24 41 13 22 1011.4 - 7.6
21/08:00am 17.2 13.3 13.3 78 2.2 W 26 43 14 23 1011.0 - 7.6
21/07:30am 16.8 13.5 15.1 90 1.0 W 26 35 14 19 1010.6 - 7.6
21/07:29am 16.8 13.5 15.1 90 1.0 W 26 35 14 19 1010.5 - 7.6
21/07:06am 16.7 14.5 15.9 95 0.5 W 22 30 12 16 1010.1 - 7.4
21/07:00am 16.5 14.2 15.8 96 0.4 WNW 22 30 12 16 1010.0 - 7.4
21/06:48am 16.5 14.2 15.8 96 0.4 WNW 22 43 12 23 1009.8 - 7.4
21/06:35am 16.2 13.8 15.3 94 0.5 NW 22 32 12 17 1009.4 - 7.0
21/06:30am 16.0 14.4 15.1 94 0.5 N 17 22 9 12 1009.1 - 7.0
21/06:17am 15.9 13.3 14.9 94 0.6 N 22 33 12 18 1008.9 - 6.2
21/06:06am 16.0 13.7 14.6 91 0.8 N 20 28 11 15 1008.6 - 4.0
21/06:00am 16.0 13.7 14.6 91 0.8 N 20 30 11 16 1008.7 1008.6 4.0
21/05:55am 16.0 12.9 14.6 91 0.8 N 24 37 13 20 1008.5 - 4.0
21/05:41am 15.8 12.3 14.4 91 0.8 N 26 35 14 19 1008.3 - 4.0
21/05:30am 15.6 11.7 14.4 93 0.7 N 28 35 15 19 1008.1 - 3.8
21/05:00am 15.3 12.4 14.1 92 0.7 NNE 22 32 12 17 1008.5 - 3.6
21/04:30am 15.9 12.3 13.0 83 1.6 N 24 32 13 17 1009.0 - 2.8
21/04:00am 15.7 12.5 13.0 84 1.5 N 22 28 12 15 1009.1 - 2.8
21/03:30am 15.5 12.4 13.4 87 1.2 NNE 22 28 12 15 1009.4 - 2.8
21/03:00am 15.9 12.6 12.8 82 1.7 N 22 30 12 16 1010.0 1009.9 2.8
21/02:30am 15.5 12.2 12.8 84 1.5 N 22 30 12 16 1010.1 - 2.8
21/02:00am 15.3 12.0 12.8 85 1.4 NNE 22 28 12 15 1010.5 - 2.8
21/01:30am 15.1 12.1 12.4 84 1.5 NNE 20 26 11 14 1011.1 - 2.8
21/01:00am 15.4 12.3 12.1 81 1.8 N 20 28 11 15 1011.5 - 2.8
21/12:30am 15.2 12.2 12.1 82 1.7 N 19 30 10 16 1011.8 - 2.8
21/12:00am 15.0 11.4 11.9 82 1.7 N 22 28 12 15 1012.1 1012.0 2.8
 
Date/Time
WST
Tmp

°C
App
Tmp
°C
Dew
Point
°C
Rel
Hum
%
Delta-T

°C
Wind Press
QNH
hPa
Press
MSL
hPa
Rain
since
9 am
mm
Dir
 
Spd
km/h
Gust
km/h
Spd
kts
Gust
kts
20/11:30pm 15.1 11.7 11.4 78 2.0 NNE 20 28 11 15 1012.5 - 2.8
20/11:00pm 14.6 11.2 11.4 81 1.7 NNE 20 26 11 14 1012.6 - 2.8
20/10:30pm 14.6 11.5 11.6 82 1.6 NNE 19 22 10 12 1013.1 - 2.8
20/10:00pm 14.8 11.7 11.6 81 1.7 NNE 19 22 10 12 1013.6 - 2.8
20/09:30pm 15.5 12.9 12.0 79 1.9 NNE 17 20 9 11 1013.8 - 2.8
20/09:00pm 15.7 13.5 12.0 78 2.0 NNE 15 19 8 10 1013.9 1013.8 2.8
20/08:30pm 15.5 13.0 12.2 81 1.8 NNE 17 20 9 11 1014.0 - 2.8
20/08:00pm 15.4 13.6 12.1 81 1.8 NNE 13 15 7 8 1014.4 - 2.8
20/07:30pm 15.4 14.1 12.5 83 1.6 NNE 11 13 6 7 1014.2 - 2.8
20/07:00pm 15.3 14.3 12.4 83 1.6 NNE 9 11 5 6 1014.1 - 2.8
20/06:30pm 15.8 14.4 12.3 80 1.9 N 11 13 6 7 1014.0 - 2.8
20/06:00pm 16.7 14.9 12.1 74 2.5 N 13 17 7 9 1013.9 1013.8 2.8
20/05:30pm 17.2 15.4 12.1 72 2.8 N 13 20 7 11 1014.0 - 2.8
20/05:00pm 17.6 15.3 11.6 68 3.3 NNW 15 24 8 13 1014.0 - 2.8
20/04:30pm 18.0 15.0 11.8 67 3.4 NNW 19 24 10 13 1013.8 - 2.8
20/04:00pm 18.2 15.2 11.8 66 3.5 NNW 19 28 10 15 1014.0 - 2.8
20/03:30pm 18.6 16.5 12.3 67 3.5 NNW 15 22 8 12 1013.9 - 2.8
20/03:00pm 17.6 16.2 13.5 77 2.3 N 13 20 7 11 1013.9 1013.8 2.8
20/02:30pm 17.4 16.1 13.7 79 2.1 N 13 19 7 10 1014.1 - 2.8
20/02:01pm 16.4 15.8 14.5 88 1.1 N 11 17 6 9 1014.4 - 2.8
20/02:00pm 16.5 16.0 14.8 90 1.0 N 11 17 6 9 1014.4 - 2.8
20/01:54pm 16.1 15.5 14.5 90 0.9 N 11 19 6 10 1014.5 - 2.8
20/01:35pm 15.8 14.1 13.5 86 1.3 NNW 15 24 8 13 1014.8 - 2.6
20/01:33pm 15.9 14.2 13.6 86 1.3 N 15 24 8 13 1014.8 - 2.6
20/01:30pm 16.0 14.6 13.5 85 1.4 N 13 17 7 9 1014.7 - 2.6
20/01:07pm 16.5 15.8 14.2 86 1.3 N 11 15 6 8 1014.8 - 2.6
20/01:00pm 15.9 15.4 13.8 87 1.2 N 9 15 5 8 1015.0 - 2.6
20/12:40pm 15.2 14.0 14.1 93 0.6 NW 13 19 7 10 1015.2 - 2.6
20/12:30pm 15.5 14.1 14.4 93 0.6 WNW 15 22 8 12 1015.6 - 2.6
20/12:00pm 14.5 10.9 13.2 92 0.7 NNW 24 35 13 19 1016.2 1016.1 1.6
20/11:49am 14.9 10.6 13.1 89 1.0 N 28 37 15 20 1016.1 - 0.4
20/11:30am 16.3 12.1 12.3 77 2.2 N 26 32 14 17 1015.9 - 0.0
20/11:00am 16.4 12.7 12.6 78 2.1 N 24 30 13 16 1016.0 - 0.0
20/10:30am 16.7 13.1 13.1 79 2.0 N 24 30 13 16 1016.0 - 0.0
20/10:00am 16.9 13.7 13.1 78 2.1 N 22 30 12 16 1016.4 - 0.0
20/09:30am 16.1 13.9 13.2 83 1.6 N 17 24 9 13 1016.4 - 0.0
20/09:00am 15.5 13.7 13.2 86 1.3 N 15 20 8 11 1016.5 1016.4 0.2
20/08:30am 14.5 12.9 12.9 90 0.9 N 13 17 7 9 1016.5 - 0.2
20/08:00am 14.0 13.4 13.6 97 0.2 N 9 15 5 8 1016.3 - 0.2
20/07:50am 13.5 13.1 13.1 97 0.2 N 7 9 4 5 1016.1 - 0.2
20/07:30am 12.4 11.4 12.2 99 0.1 NE 9 11 5 6 1015.8 - 0.2
20/07:00am 11.5 10.2 11.3 99 0.1 NNE 9 11 5 6 1015.8 - 0.2
20/06:47am 11.5 9.8 11.1 97 0.2 NNE 11 13 6 7 1015.7 - 0.2
20/06:30am 11.8 10.2 11.6 99 0.1 NE 11 11 6 6 1015.5 - 0.2
20/06:00am 12.3 10.5 12.1 99 0.1 NE 13 15 7 8 1015.4 1015.3 0.2
20/05:30am 12.8 10.7 12.4 97 0.2 NNE 15 19 8 10 1015.6 - 0.2
20/05:00am 13.4 12.3 13.0 97 0.2 NNE 11 15 6 8 1015.7 - 0.2
20/04:30am 13.0 12.0 12.4 96 0.3 NNE 9 13 5 7 1015.7 - 0.2
20/04:00am 11.9 10.7 11.5 97 0.2 NNE 9 9 5 5 1015.7 - 0.2
20/03:30am 12.5 11.4 11.9 96 0.3 NNE 9 13 5 7 1015.9 - 0.2
20/03:00am 13.3 12.9 12.9 97 0.2 NNE 7 9 4 5 1016.3 1016.2 0.2
20/02:30am 14.0 13.4 13.5 97 0.3 N 9 11 5 6 1016.6 - 0.2
20/02:00am 14.2 13.7 13.7 97 0.3 N 9 13 5 7 1016.9 - 0.2
20/01:30am 14.1 13.9 13.6 97 0.3 N 7 11 4 6 1017.0 - 0.2
20/01:00am 14.1 13.8 13.4 96 0.4 NE 7 9 4 5 1017.1 - 0.2
20/12:30am 14.2 13.5 13.3 94 0.5 NE 9 11 5 6 1017.2 - 0.2
20/12:00am 14.2 13.2 13.5 96 0.4 NNE 11 15 6 8 1017.2 1017.1 0.2
 
Date/Time
WST
Tmp

°C
App
Tmp
°C
Dew
Point
°C
Rel
Hum
%
Delta-T

°C
Wind Press
QNH
hPa
Press
MSL
hPa
Rain
since
9 am
mm
Dir
 
Spd
km/h
Gust
km/h
Spd
kts
Gust
kts
19/11:30pm 14.1 14.0 13.2 94 0.5 SSE 6 11 3 6 1017.1 - 0.2
19/11:27pm 14.1 13.8 13.4 96 0.4 SSE 7 11 4 6 1017.1 - 0.2
19/11:00pm 14.1 13.0 13.0 93 0.6 WNW 11 15 6 8 1017.4 - 0.0
19/10:48pm 14.3 12.4 13.0 92 0.7 NW 15 19 8 10 1017.6 - 0.0
19/10:41pm 14.4 13.0 13.3 93 0.6 NW 13 19 7 10 1017.6 - 0.0
19/10:30pm 14.8 13.5 13.7 93 0.6 NW 13 19 7 10 1017.7 - 0.0
19/10:25pm 14.9 13.2 13.6 92 0.7 NW 15 20 8 11 1017.8 - 0.0
19/10:00pm 15.3 14.9 14.2 93 0.6 NNW 9 17 5 9 1017.7 - 0.0
19/09:30pm 14.8 14.0 13.9 94 0.5 N 11 15 6 8 1017.8 - 0.0
19/09:00pm 12.4 11.7 11.5 94 0.5 NNE 6 6 3 3 1017.7 1017.7 0.0
19/08:30pm 12.4 12.9 11.6 95 0.4 CALM 0 0 0 0 1017.6 - 0.0
19/08:00pm 12.8 13.4 11.9 94 0.5 CALM 0 0 0 0 1017.4 - 0.0
19/07:30pm 12.3 12.7 11.3 94 0.5 CALM 0 0 0 0 1017.2 - 0.0
19/07:00pm 13.4 13.9 11.7 89 0.9 CALM 0 0 0 0 1017.0 - 0.0
19/06:30pm 14.9 14.5 12.5 85 1.3 W 6 7 3 4 1016.8 - 0.0
19/06:00pm 16.1 15.2 12.5 79 2.0 W 9 11 5 6 1016.7 1016.6 0.0
19/05:30pm 17.1 15.6 12.0 72 2.8 W 11 13 6 7 1016.6 - 0.0
19/05:00pm 17.9 16.0 11.7 67 3.4 WSW 13 17 7 9 1016.4 - 0.0
19/04:30pm 18.2 15.2 12.0 67 3.4 W 19 22 10 12 1016.4 - 0.0
19/04:00pm 18.1 15.5 12.1 68 3.3 W 17 24 9 13 1016.2 - 0.0

Latest Capital City Observations: Canberra | Sydney | Melbourne | Brisbane | Adelaide | Perth | Hobart | Darwin

Other Formats:

Comma delimited format used in spreadsheet applications
http://www.bom.gov.au/fwo/IDW60901/IDW60901.94609.axf

JavaScript Object Notation format (JSON) in row-major order
http://www.bom.gov.au/fwo/IDW60901/IDW60901.94609.json